createdAt,value
2019-05-23T00:02:16.276Z,66.46
2019-05-23T00:07:26.951Z,66.75
2019-05-23T00:09:58.790Z,67.54
2019-05-23T00:12:44.874Z,67.88
2019-05-23T00:15:39.247Z,67.65
2019-05-23T00:18:09.627Z,67.90
2019-05-23T00:20:39.921Z,68.04
2019-05-23T00:23:10.966Z,67.33
2019-05-23T00:25:40.496Z,67.13
2019-05-23T00:28:11.697Z,66.90
2019-05-23T00:30:46.243Z,66.71
2019-05-23T00:33:18.149Z,67.85
2019-05-23T00:35:47.977Z,67.34
2019-05-23T00:38:19.310Z,67.20
2019-05-23T00:40:50.830Z,67.70
2019-05-23T00:43:22.448Z,67.85
2019-05-23T00:45:52.068Z,67.10
2019-05-23T00:48:22.205Z,67.61
2019-05-23T00:50:53.016Z,68.39
2019-05-23T00:53:23.637Z,68.09
2019-05-23T00:55:53.687Z,68.74
2019-05-23T00:58:23.516Z,68.18
2019-05-23T01:03:47.393Z,68.49
2019-05-23T01:06:18.536Z,69.34
2019-05-23T01:08:48.846Z,69.21
2019-05-23T01:11:19.689Z,70.10
2019-05-23T01:13:49.044Z,70.22
2019-05-23T01:16:18.983Z,70.34
2019-05-23T01:18:48.403Z,70.74
2019-05-23T01:24:08.561Z,70.22
2019-05-23T01:26:38.603Z,71.37
2019-05-23T01:29:09.029Z,71.36
2019-05-23T01:31:40.557Z,71.54
2019-05-23T01:34:11.762Z,71.88
2019-05-23T01:36:42.180Z,72.00
2019-05-23T01:39:12.214Z,72.23
2019-05-23T01:41:42.437Z,71.82
2019-05-23T01:44:14.236Z,71.92
2019-05-23T01:46:43.954Z,71.80
2019-05-23T01:49:13.688Z,70.85
2019-05-23T01:51:43.628Z,70.94
2019-05-23T01:54:13.957Z,70.82
2019-05-23T01:56:44.492Z,70.49
2019-05-23T01:59:14.629Z,71.09
2019-05-23T02:01:44.187Z,71.27
2019-05-23T02:04:13.609Z,71.69
2019-05-23T02:06:43.033Z,72.28
2019-05-23T02:09:14.278Z,72.51
2019-05-23T02:11:43.726Z,72.87
2019-05-23T02:14:14.743Z,72.58
2019-05-23T02:16:45.474Z,72.89
2019-05-23T02:19:15.517Z,73.28
2019-05-23T02:21:44.981Z,73.03
2019-05-23T02:24:14.607Z,73.46
2019-05-23T02:26:44.840Z,72.79
2019-05-23T02:29:15.776Z,73.33
2019-05-23T02:31:45.410Z,74.30
2019-05-23T02:34:14.844Z,74.19
2019-05-23T02:36:44.354Z,74.35
2019-05-23T02:39:15.373Z,74.33
2019-05-23T02:41:46.445Z,74.87
2019-05-23T02:44:20.743Z,74.90
2019-05-23T02:47:09.048Z,74.68
2019-05-23T02:49:40.852Z,74.49
2019-05-23T02:52:28.705Z,74.73
2019-05-23T02:54:59.024Z,75.06
2019-05-23T02:57:30.365Z,75.68
2019-05-23T03:00:03.896Z,76.11
2019-05-23T03:02:37.799Z,76.62
2019-05-23T03:05:10.450Z,76.08
2019-05-23T03:07:42.202Z,75.69
2019-05-23T03:10:13.386Z,75.07
2019-05-23T03:12:45.429Z,74.32
2019-05-23T03:15:15.958Z,74.08
2019-05-23T03:17:52.781Z,73.31
2019-05-23T03:20:22.216Z,73.16
2019-05-23T03:22:56.317Z,72.31
2019-05-23T03:25:39.178Z,72.43
2019-05-23T03:28:09.959Z,69.91
2019-05-23T03:30:42.016Z,67.80
2019-05-23T03:33:13.177Z,64.52
2019-05-23T03:35:44.395Z,61.48
2019-05-23T03:38:14.592Z,59.95
2019-05-23T03:40:44.090Z,57.78
2019-05-23T03:43:13.673Z,54.33
2019-05-23T03:45:47.937Z,54.14
2019-05-23T03:48:19.062Z,53.74
2019-05-23T03:50:50.680Z,53.00
2019-05-23T03:53:21.717Z,53.00
2019-05-23T03:55:53.425Z,52.19
2019-05-23T03:58:24.025Z,52.53
2019-05-23T04:00:58.296Z,52.59
2019-05-23T04:03:29.795Z,52.92
2019-05-23T04:05:59.829Z,52.53
2019-05-23T04:08:29.968Z,53.10
2019-05-23T04:11:00.606Z,55.41
2019-05-23T04:13:30.543Z,56.98
2019-05-23T04:16:00.460Z,56.90
2019-05-23T04:18:30.319Z,56.90
2019-05-23T04:21:00.330Z,58.66
2019-05-23T04:23:29.990Z,58.47
2019-05-23T04:25:59.936Z,58.83
2019-05-23T04:28:29.667Z,59.52
2019-05-23T04:30:59.595Z,58.73
2019-05-23T04:33:29.421Z,58.93
2019-05-23T04:35:59.209Z,58.52
2019-05-23T04:38:28.915Z,58.90
2019-05-23T04:40:58.403Z,58.13
2019-05-23T04:43:28.333Z,57.89
2019-05-23T04:45:57.790Z,58.18
2019-05-23T04:48:28.098Z,57.34
2019-05-23T04:51:00.141Z,57.27
2019-05-23T04:53:29.599Z,56.95
2019-05-23T04:55:59.050Z,56.24
2019-05-23T04:58:29.181Z,56.62
2019-05-23T05:00:58.907Z,56.01
2019-05-23T05:03:28.627Z,57.34
2019-05-23T05:05:58.167Z,57.34
2019-05-23T05:08:28.094Z,56.20
2019-05-23T05:11:00.467Z,56.20
2019-05-23T05:13:31.917Z,56.30
2019-05-23T05:16:01.341Z,56.43
2019-05-23T05:18:30.794Z,54.64
2019-05-23T05:21:00.210Z,54.64
2019-05-23T05:23:29.623Z,54.25
2019-05-23T05:25:59.079Z,52.35
2019-05-23T05:28:28.605Z,52.35
2019-05-23T05:30:58.149Z,52.88
2019-05-23T05:33:27.570Z,52.68
2019-05-23T05:35:57.290Z,51.42
2019-05-23T05:38:28.895Z,51.42
2019-05-23T05:40:58.303Z,51.75
2019-05-23T05:43:28.039Z,50.79
2019-05-23T05:45:57.475Z,50.79
2019-05-23T05:48:27.261Z,50.18
2019-05-23T05:50:56.697Z,50.09
2019-05-23T05:53:26.258Z,48.85
2019-05-23T05:55:55.712Z,46.89
2019-05-23T05:58:25.129Z,47.60
2019-05-23T06:00:56.122Z,46.13
2019-05-23T06:03:25.255Z,46.57
2019-05-23T06:06:05.523Z,45.98
2019-05-23T06:08:36.738Z,46.65
2019-05-23T06:11:06.049Z,46.70
2019-05-23T06:13:35.297Z,45.89
2019-05-23T06:16:05.336Z,46.16
2019-05-23T06:18:34.474Z,46.21
2019-05-23T06:21:04.209Z,45.46
2019-05-23T06:23:34.248Z,45.17
2019-05-23T06:26:03.294Z,43.63
2019-05-23T06:28:33.132Z,43.38
2019-05-23T06:31:02.564Z,42.97
2019-05-23T06:33:32.209Z,41.80
2019-05-23T06:36:01.983Z,42.02
2019-05-23T06:38:31.687Z,41.17
2019-05-23T06:41:02.834Z,41.91
2019-05-23T06:43:33.699Z,41.57
2019-05-23T06:46:02.954Z,41.17
2019-05-23T06:48:32.101Z,39.91
2019-05-23T06:51:01.170Z,40.90
2019-05-23T06:53:30.279Z,40.30
2019-05-23T06:55:59.331Z,40.81
2019-05-23T06:58:29.222Z,39.36
2019-05-23T07:00:58.389Z,37.78
2019-05-23T07:03:41.211Z,38.69
2019-05-23T07:05:59.680Z,38.89
2019-05-23T07:08:30.763Z,37.40
2019-05-23T07:10:59.877Z,39.00
2019-05-23T07:13:31.799Z,39.48
2019-05-23T07:16:01.107Z,40.03
2019-05-23T07:18:30.526Z,38.76
2019-05-23T07:20:59.670Z,38.63
2019-05-23T07:23:29.814Z,39.96
2019-05-23T07:25:58.958Z,41.26
2019-05-23T07:28:28.184Z,41.67
2019-05-23T07:30:57.750Z,41.83
2019-05-23T07:33:26.875Z,42.40
2019-05-23T07:35:56.805Z,42.71
2019-05-23T07:38:25.922Z,42.68
2019-05-23T07:40:55.758Z,40.51
2019-05-23T07:43:24.888Z,39.69
2019-05-23T07:45:55.668Z,37.00
2019-05-23T07:48:25.406Z,36.98
2019-05-23T07:50:54.554Z,36.88
2019-05-23T07:53:44.054Z,36.17
2019-05-23T07:56:14.451Z,34.80
2019-05-23T07:58:44.180Z,34.45
2019-05-23T08:01:15.027Z,34.54
2019-05-23T08:03:45.379Z,33.74
2019-05-23T08:06:14.691Z,33.42
2019-05-23T08:08:44.122Z,32.61
2019-05-23T08:11:13.348Z,32.58
2019-05-23T08:13:42.589Z,32.80
2019-05-23T08:16:12.528Z,30.79
2019-05-23T08:18:42.621Z,30.22
2019-05-23T08:21:11.744Z,29.81
2019-05-23T08:23:40.873Z,29.77
2019-05-23T08:26:11.088Z,29.13
2019-05-23T08:29:00.481Z,28.92
2019-05-23T08:31:11.612Z,30.50
2019-05-23T08:33:41.507Z,29.23
2019-05-23T08:36:11.145Z,29.56
2019-05-23T08:38:40.680Z,28.45
2019-05-23T08:41:09.802Z,28.93
2019-05-23T08:43:38.879Z,29.50
2019-05-23T08:46:08.887Z,28.75
2019-05-23T08:48:38.011Z,28.99
2019-05-23T08:51:07.148Z,28.19
2019-05-23T08:53:36.264Z,28.56
2019-05-23T08:56:18.034Z,28.93
2019-05-23T08:58:36.277Z,28.46
2019-05-23T09:01:07.006Z,27.79
2019-05-23T09:03:36.064Z,29.74
2019-05-23T09:06:05.183Z,29.11
2019-05-23T09:08:34.332Z,26.75
2019-05-23T09:11:03.569Z,26.55
2019-05-23T09:13:33.353Z,25.85
2019-05-23T09:16:03.075Z,26.29
2019-05-23T09:18:32.280Z,25.22
2019-05-23T09:21:01.528Z,27.46
2019-05-23T09:23:30.677Z,27.21
2019-05-23T09:25:59.866Z,25.73
2019-05-23T09:28:29.481Z,25.51
2019-05-23T09:30:59.109Z,26.49
2019-05-23T09:33:28.221Z,25.99
2019-05-23T09:35:57.659Z,26.05
2019-05-23T09:38:26.869Z,27.90
2019-05-23T09:40:56.393Z,25.15
2019-05-23T09:43:25.614Z,27.39
2019-05-23T09:45:54.772Z,26.93
2019-05-23T09:48:23.988Z,26.49
2019-05-23T09:50:53.082Z,25.65
2019-05-23T09:53:22.405Z,26.79
2019-05-23T09:55:51.514Z,25.58
2019-05-23T09:58:20.574Z,25.76
2019-05-23T10:00:49.630Z,26.52
2019-05-23T10:03:19.050Z,27.36
2019-05-23T10:05:48.193Z,26.86
2019-05-23T10:08:17.322Z,28.70
2019-05-23T10:10:46.834Z,28.92
2019-05-23T10:13:16.062Z,26.70
2019-05-23T10:15:46.753Z,25.54
2019-05-23T10:18:17.455Z,24.63
2019-05-23T10:20:46.673Z,26.05
2019-05-23T10:23:15.908Z,23.51
2019-05-23T10:25:45.575Z,24.89
2019-05-23T10:28:15.635Z,24.88
2019-05-23T10:30:44.875Z,25.14
2019-05-23T10:33:14.111Z,24.59
2019-05-23T10:35:58.968Z,24.49
2019-05-23T10:38:14.078Z,24.93
2019-05-23T10:40:43.759Z,23.04
2019-05-23T10:43:13.068Z,25.48
2019-05-23T10:45:42.289Z,24.58
2019-05-23T10:48:11.939Z,24.91
2019-05-23T10:50:44.742Z,25.81
2019-05-23T10:53:12.603Z,25.34
2019-05-23T10:55:41.665Z,24.74
2019-05-23T10:58:10.919Z,25.22
2019-05-23T11:00:40.812Z,25.79
2019-05-23T11:03:11.709Z,25.13
2019-05-23T11:05:41.139Z,24.05
2019-05-23T11:08:10.682Z,24.15
2019-05-23T11:10:40.710Z,24.03
2019-05-23T11:13:09.845Z,22.04
2019-05-23T11:15:39.183Z,23.28
2019-05-23T11:18:10.215Z,21.55
2019-05-23T11:20:39.365Z,22.35
2019-05-23T11:23:08.539Z,21.86
2019-05-23T11:25:39.737Z,21.96
2019-05-23T11:28:08.832Z,21.62
2019-05-23T11:30:49.633Z,22.17
2019-05-23T11:33:19.344Z,22.01
2019-05-23T11:35:48.661Z,21.58
2019-05-23T11:38:17.730Z,22.67
2019-05-23T11:40:46.818Z,24.22
2019-05-23T11:43:15.928Z,24.09
2019-05-23T11:45:49.315Z,24.18
2019-05-23T11:48:18.681Z,23.13
2019-05-23T11:50:47.775Z,25.17
2019-05-23T11:53:16.905Z,23.43
2019-05-23T11:55:46.456Z,24.06
2019-05-23T11:58:15.688Z,24.53
2019-05-23T12:00:57.834Z,24.91
2019-05-23T12:03:27.110Z,24.61
2019-05-23T12:05:56.239Z,24.85
2019-05-23T12:08:25.341Z,25.63
2019-05-23T12:10:54.461Z,26.92
2019-05-23T12:13:23.600Z,27.17
2019-05-23T12:15:52.926Z,28.75
2019-05-23T12:18:22.676Z,30.02
2019-05-23T12:20:51.793Z,29.19
2019-05-23T12:23:20.916Z,30.35
2019-05-23T12:25:50.584Z,30.26
2019-05-23T12:28:20.209Z,28.65
2019-05-23T12:30:49.335Z,28.88
2019-05-23T12:33:18.441Z,28.50
2019-05-23T12:35:47.492Z,28.41
2019-05-23T12:38:16.619Z,28.03
2019-05-23T12:40:45.806Z,27.69
2019-05-23T12:43:14.886Z,27.54
2019-05-23T12:45:44.135Z,25.33
2019-05-23T12:48:14.893Z,26.09
2019-05-23T12:50:45.615Z,25.61
2019-05-23T12:53:16.149Z,27.05
2019-05-23T12:55:45.302Z,25.46
2019-05-23T12:58:14.368Z,26.03
2019-05-23T13:00:45.170Z,24.83
2019-05-23T13:03:15.626Z,25.01
2019-05-23T13:05:44.761Z,25.85
2019-05-23T13:08:13.997Z,26.47
2019-05-23T13:10:43.068Z,26.61
2019-05-23T13:13:12.268Z,27.39
2019-05-23T13:15:41.389Z,28.14
2019-05-23T13:18:10.637Z,28.12
2019-05-23T13:20:40.187Z,28.36
2019-05-23T13:23:20.339Z,28.07
2019-05-23T13:25:42.812Z,28.47
2019-05-23T13:28:11.940Z,28.82
2019-05-23T13:30:41.557Z,29.86
2019-05-23T13:33:10.934Z,29.26
2019-05-23T13:35:40.349Z,29.83
2019-05-23T13:38:09.485Z,30.46
2019-05-23T13:40:38.645Z,32.06
2019-05-23T13:43:09.137Z,31.79
2019-05-23T13:45:38.525Z,32.26
2019-05-23T13:48:07.675Z,32.53
2019-05-23T13:50:36.907Z,31.01
2019-05-23T13:53:06.665Z,33.51
2019-05-23T13:55:37.201Z,31.22
2019-05-23T13:58:06.318Z,31.94
2019-05-23T14:00:35.555Z,31.64
2019-05-23T14:03:05.580Z,31.86
2019-05-23T14:05:34.680Z,32.78
2019-05-23T14:08:12.189Z,32.49
2019-05-23T14:10:35.054Z,33.95
2019-05-23T14:13:04.170Z,33.80
2019-05-23T14:15:43.963Z,33.54
2019-05-23T14:18:20.642Z,33.52
2019-05-23T14:20:50.006Z,33.90
2019-05-23T14:23:23.614Z,34.38
2019-05-23T14:25:54.303Z,34.04
2019-05-23T14:28:24.107Z,35.18
2019-05-23T14:30:54.836Z,35.78
2019-05-23T14:33:25.557Z,37.92
2019-05-23T14:35:56.973Z,40.15
2019-05-23T14:38:30.807Z,43.78
2019-05-23T14:40:58.648Z,43.78
2019-05-23T14:43:28.682Z,46.31
2019-05-23T14:46:08.020Z,47.61
2019-05-23T14:48:39.421Z,48.27
2019-05-23T14:51:28.844Z,49.18
2019-05-23T14:53:59.791Z,48.21
2019-05-23T14:56:30.938Z,48.18
2019-05-23T14:59:00.299Z,47.98
2019-05-23T15:01:31.390Z,48.55
2019-05-23T15:04:00.742Z,48.55
2019-05-23T15:06:30.160Z,48.92
2019-05-23T15:08:59.704Z,49.49
2019-05-23T15:11:29.267Z,49.49
2019-05-23T15:13:59.070Z,49.96
2019-05-23T15:16:28.485Z,49.64
2019-05-23T15:18:57.962Z,49.75
2019-05-23T15:21:27.557Z,50.75
2019-05-23T15:23:57.012Z,50.75
2019-05-23T15:28:55.294Z,52.73
2019-05-23T15:31:24.745Z,52.62
2019-05-23T15:33:54.253Z,52.62
2019-05-23T15:36:23.674Z,53.41
2019-05-23T15:39:08.059Z,53.02
2019-05-23T15:41:24.246Z,53.37
2019-05-23T15:43:53.674Z,54.15
2019-05-23T15:46:23.594Z,53.48
2019-05-23T15:48:53.299Z,54.82
2019-05-23T15:51:24.287Z,54.82
2019-05-23T15:53:58.155Z,55.70
2019-05-23T15:56:32.362Z,55.23
2019-05-23T15:59:15.605Z,55.09
2019-05-23T16:01:49.258Z,54.42
2019-05-23T16:04:20.285Z,54.09
2019-05-23T16:06:49.707Z,55.05
2019-05-23T16:09:29.470Z,55.05
2019-05-23T16:11:50.733Z,55.40
2019-05-23T16:14:21.081Z,55.44
2019-05-23T16:16:50.508Z,56.24
2019-05-23T16:19:20.019Z,56.41
2019-05-23T16:21:49.447Z,56.90
2019-05-23T16:24:18.958Z,56.96
2019-05-23T16:26:48.695Z,56.96
2019-05-23T16:29:19.685Z,56.61
2019-05-23T16:31:49.114Z,57.03
2019-05-23T16:34:18.549Z,56.55
2019-05-23T16:36:47.912Z,56.55
2019-05-23T16:39:17.440Z,57.03
2019-05-23T16:41:46.842Z,56.61
2019-05-23T16:44:16.250Z,56.61
2019-05-23T16:46:45.665Z,56.21
2019-05-23T16:49:15.139Z,56.81
2019-05-23T16:51:44.562Z,57.40
2019-05-23T16:54:16.032Z,57.68
2019-05-23T16:56:56.020Z,57.91
2019-05-23T16:59:38.977Z,58.67
2019-05-23T17:02:10.175Z,59.20
2019-05-23T17:07:50.558Z,59.75
2019-05-23T17:13:32.751Z,60.08
2019-05-23T17:16:09.820Z,60.85
2019-05-23T17:18:47.011Z,62.40
2019-05-23T17:21:20.738Z,62.51
2019-05-23T17:23:58.347Z,63.71
2019-05-23T17:26:33.362Z,65.22
2019-05-23T17:29:04.392Z,65.69
2019-05-23T17:31:35.397Z,65.65
2019-05-23T17:34:05.119Z,65.98
2019-05-23T17:36:34.557Z,65.87
2019-05-23T17:39:06.453Z,66.15
2019-05-23T17:41:35.878Z,65.80
2019-05-23T17:44:05.801Z,65.80
2019-05-23T17:46:35.418Z,65.82
2019-05-23T17:49:05.772Z,65.64
2019-05-23T17:51:35.190Z,65.60
2019-05-23T17:54:04.606Z,66.19
2019-05-23T17:56:34.023Z,67.44
2019-05-23T17:59:03.670Z,67.94
2019-05-23T18:01:33.301Z,67.53
2019-05-23T18:04:03.135Z,68.13
2019-05-23T18:06:33.421Z,69.12
2019-05-23T18:09:04.851Z,71.19
2019-05-23T18:11:34.594Z,72.46
2019-05-23T18:14:05.059Z,73.07
2019-05-23T18:16:35.686Z,72.98
2019-05-23T18:19:05.418Z,73.52
2019-05-23T18:21:35.143Z,73.35
2019-05-23T18:24:05.202Z,74.00
2019-05-23T18:26:38.702Z,74.94
2019-05-23T18:29:08.739Z,76.36
2019-05-23T18:31:39.750Z,75.63
2019-05-23T18:34:09.501Z,77.80
2019-05-23T18:36:39.760Z,78.29
2019-05-23T18:39:10.301Z,78.39
2019-05-23T18:41:40.226Z,78.47
2019-05-23T18:44:10.068Z,78.10
2019-05-23T18:46:41.186Z,78.46
2019-05-23T18:49:11.318Z,78.58
2019-05-23T18:51:41.147Z,78.84
2019-05-23T18:54:10.694Z,79.86
2019-05-23T18:56:40.217Z,78.49
2019-05-23T18:59:10.159Z,77.94
2019-05-23T19:01:40.081Z,80.54
2019-05-23T19:04:09.625Z,79.53
2019-05-23T19:06:39.542Z,79.53
2019-05-23T19:09:11.924Z,77.79
2019-05-23T19:11:41.297Z,77.84
2019-05-23T19:14:10.789Z,75.53
2019-05-23T19:16:40.256Z,76.15
2019-05-23T19:19:09.774Z,75.64
2019-05-23T19:21:40.216Z,77.73
2019-05-23T19:24:10.243Z,77.45
2019-05-23T19:26:40.163Z,75.07
2019-05-23T19:29:09.593Z,75.53
2019-05-23T19:31:38.960Z,76.85
2019-05-23T19:34:08.375Z,77.03
2019-05-23T19:36:37.910Z,78.60
2019-05-23T19:39:07.438Z,80.15
2019-05-23T19:41:38.277Z,79.78
2019-05-23T19:44:07.909Z,80.45
2019-05-23T19:46:37.351Z,81.08
2019-05-23T19:49:07.073Z,80.12
2019-05-23T19:51:36.495Z,79.03
2019-05-23T19:54:06.519Z,79.53
2019-05-23T19:56:35.928Z,79.69
2019-05-23T19:59:05.665Z,79.25
2019-05-23T20:01:39.064Z,79.20
2019-05-23T20:04:10.092Z,78.37
2019-05-23T20:06:39.673Z,79.04
2019-05-23T20:09:11.578Z,79.30
2019-05-23T20:11:53.838Z,80.18
2019-05-23T20:14:12.144Z,78.76
2019-05-23T20:16:41.668Z,79.28
2019-05-23T20:19:11.803Z,81.06
2019-05-23T20:21:41.220Z,80.60
2019-05-23T20:24:10.663Z,80.64
2019-05-23T20:26:39.989Z,81.41
2019-05-23T20:29:09.424Z,81.37
2019-05-23T20:31:38.909Z,79.92
2019-05-23T20:34:08.531Z,80.22
2019-05-23T20:36:37.955Z,79.38
2019-05-23T20:39:08.127Z,80.57
2019-05-23T20:41:37.894Z,80.80
2019-05-23T20:44:07.251Z,80.91
2019-05-23T20:46:36.779Z,80.58
2019-05-23T20:49:06.256Z,81.46
2019-05-23T20:51:37.014Z,81.31
2019-05-23T20:54:06.439Z,81.36
2019-05-23T20:56:35.864Z,81.47
2019-05-23T20:59:05.892Z,81.06
2019-05-23T21:01:36.874Z,81.08
2019-05-23T21:04:06.731Z,80.94
2019-05-23T21:06:36.172Z,80.51
2019-05-23T21:09:08.008Z,79.11
2019-05-23T21:11:37.536Z,80.52
2019-05-23T21:14:07.042Z,80.47
2019-05-23T21:16:36.469Z,81.28
2019-05-23T21:19:05.872Z,81.07
2019-05-23T21:21:35.302Z,81.13
2019-05-23T21:24:04.950Z,82.13
2019-05-23T21:26:34.646Z,82.58
2019-05-23T21:29:04.080Z,82.26
2019-05-23T21:31:33.485Z,82.32
2019-05-23T21:34:02.902Z,82.29
2019-05-23T21:36:32.838Z,82.13
2019-05-23T21:39:02.259Z,82.52
2019-05-23T21:41:31.676Z,81.80
2019-05-23T21:44:01.108Z,82.16
2019-05-23T21:46:30.735Z,82.15
2019-05-23T21:49:00.146Z,81.88
2019-05-23T21:51:29.588Z,82.33
2019-05-23T21:53:59.172Z,82.19
2019-05-23T21:56:28.617Z,83.20
2019-05-23T21:58:58.045Z,83.24
2019-05-23T22:01:29.054Z,82.82
2019-05-23T22:04:06.151Z,82.73
2019-05-23T22:06:37.261Z,82.71
2019-05-23T22:09:09.179Z,83.35
2019-05-23T22:11:38.957Z,83.78
2019-05-23T22:14:08.702Z,83.85
2019-05-23T22:16:38.875Z,83.43
2019-05-23T22:19:09.959Z,82.10
2019-05-23T22:21:39.412Z,81.54
2019-05-23T22:24:09.893Z,82.10
2019-05-23T22:26:39.424Z,80.67
2019-05-23T22:29:08.962Z,80.08
2019-05-23T22:31:38.616Z,80.65
2019-05-23T22:34:27.728Z,81.26
2019-05-23T22:36:58.771Z,81.99
2019-05-23T22:39:28.205Z,82.01
2019-05-23T22:41:57.657Z,81.27
2019-05-23T22:44:27.307Z,82.05
2019-05-23T22:46:56.754Z,82.63
2019-05-23T22:49:26.218Z,83.25
2019-05-23T22:51:55.671Z,82.67
2019-05-23T22:54:25.124Z,82.02
2019-05-23T22:56:54.580Z,82.77
2019-05-23T22:59:24.008Z,82.92
2019-05-23T23:01:53.473Z,82.92
2019-05-23T23:04:23.327Z,80.83
2019-05-23T23:06:52.776Z,81.11
2019-05-23T23:09:22.404Z,81.67
2019-05-23T23:11:51.984Z,79.90
2019-05-23T23:14:21.407Z,82.23
2019-05-23T23:16:51.379Z,81.25
2019-05-23T23:19:20.915Z,81.84
2019-05-23T23:21:50.368Z,81.24
2019-05-23T23:24:19.801Z,82.48
2019-05-23T23:26:49.235Z,82.33
2019-05-23T23:29:18.661Z,81.80
2019-05-23T23:31:48.103Z,82.08
2019-05-23T23:34:17.545Z,82.13
2019-05-23T23:36:46.982Z,81.28
2019-05-23T23:39:16.515Z,82.03
2019-05-23T23:41:45.952Z,81.16
2019-05-23T23:44:15.569Z,81.51
2019-05-23T23:47:02.957Z,81.30
2019-05-23T23:49:50.088Z,81.65
2019-05-23T23:52:37.553Z,81.01
2019-05-23T23:55:24.912Z,81.42
2019-05-23T23:57:59.581Z,82.93
